Terminal Aerodrome Forecast
Issued by NWS

Home | Current Version | Previous Version | Text Only | Print | Product List | Glossary On
Versions: 1 2 3 4 5 6 7 8 9 10 11 12 13 14 15 16 17 18 19 20 21 22 23 24 25
000
FTUS44 KTSA 201100
TAFXNA
TAF
KXNA 201120Z 2012/2112 00000KT 1SM BR OVC003
      TEMPO 2012/2016 1/2SM FG VV002
     FM201600 20004KT 4SM BR OVC004
     FM201900 19005KT P6SM OVC015
     FM202200 18004KT P6SM BKN025
     FM210900 17004KT 4SM BR OVC015=

USA.gov is the U.S. government's official web portal to all federal, state and local government web resources and services.